Terminal Aerodrome Forecast
Issued by NWS Memphis, TN

Home | Current Version | Previous Version | Text Only | Print | Product List | Glossary On
Versions: 1 2 3 4 5 6 7 8 9 10 11 12 13 14 15 16 17
000
FTUS44 KMEG 041120
TAFJBR
TAF
KJBR 041120Z 0412/0512 02015G20KT 3SM -RA OVC003
      TEMPO 0412/0416 1SM -RA BR
     FM041700 02015G20KT 2SM -FZRAPL OVC003
     FM041900 02015G20KT 2SM PLSN BR OVC003
     FM042300 03020G30KT 2SM PLSN BR OVC003
      TEMPO 0423/0503 1/2SM SN FG OVC002
     FM050300 02020G30KT 1SM -SN BR OVC007
      TEMPO 0503/0507 1/2SM SN FG OVC002
     FM050700 02015G25KT 3SM -SN BR OVC015=

USA.gov is the U.S. government's official web portal to all federal, state and local government web resources and services.